createdAt,value
2022-07-25T00:00:17.987Z,2.50
2022-07-25T00:03:03.511Z,2.50
2022-07-25T00:05:37.350Z,2.60
2022-07-25T00:08:05.989Z,2.60
2022-07-25T00:10:33.993Z,2.90
2022-07-25T00:13:02.151Z,2.60
2022-07-25T00:15:30.395Z,2.60
2022-07-25T00:17:58.356Z,2.50
2022-07-25T00:20:26.319Z,2.70
2022-07-25T00:22:54.798Z,2.80
2022-07-25T00:25:22.720Z,2.90
2022-07-25T00:27:50.664Z,3.10
2022-07-25T00:30:18.623Z,2.80
2022-07-25T00:32:46.763Z,2.90
2022-07-25T00:35:14.779Z,3.10
2022-07-25T00:37:42.699Z,2.80
2022-07-25T00:40:11.415Z,2.70
2022-07-25T00:42:39.468Z,3.10
2022-07-25T00:45:07.960Z,2.70
2022-07-25T00:47:37.059Z,3.10
2022-07-25T00:50:05.379Z,2.90
2022-07-25T00:57:04.938Z,3.00
2022-07-25T00:59:33.053Z,3.60
2022-07-25T01:02:03.666Z,2.90
2022-07-25T01:04:32.256Z,2.60
2022-07-25T01:07:01.150Z,3.00
2022-07-25T01:09:29.710Z,3.10
2022-07-25T01:11:57.655Z,3.10
2022-07-25T01:14:25.798Z,2.50
2022-07-25T01:16:53.821Z,3.20
2022-07-25T01:19:22.039Z,2.90
2022-07-25T01:21:49.984Z,2.80
2022-07-25T01:24:17.969Z,3.00
2022-07-25T01:26:45.898Z,2.70
2022-07-25T01:29:14.037Z,2.50
2022-07-25T01:31:42.005Z,3.00
2022-07-25T01:34:10.222Z,2.90
2022-07-25T01:36:38.460Z,3.50
2022-07-25T01:39:06.399Z,3.00
2022-07-25T01:41:34.352Z,2.80
2022-07-25T01:44:02.434Z,3.20
2022-07-25T01:46:30.831Z,2.70
2022-07-25T01:49:00.549Z,2.70
2022-07-25T01:51:28.689Z,3.10
2022-07-25T01:53:56.727Z,3.00
2022-07-25T01:56:25.534Z,3.20
2022-07-25T01:58:53.525Z,3.10
2022-07-25T02:01:22.251Z,3.00
2022-07-25T02:03:51.146Z,2.60
2022-07-25T02:06:19.854Z,3.20
2022-07-25T02:08:47.915Z,2.80
2022-07-25T02:11:15.981Z,3.20
2022-07-25T02:13:44.804Z,2.80
2022-07-25T02:16:12.965Z,2.90
2022-07-25T02:18:40.869Z,2.80
2022-07-25T02:21:13.870Z,2.90
2022-07-25T02:23:44.427Z,3.00
2022-07-25T02:26:13.187Z,3.00
2022-07-25T02:28:41.567Z,3.10
2022-07-25T02:31:09.821Z,3.20
2022-07-25T02:33:38.199Z,3.10
2022-07-25T02:36:06.758Z,3.90
2022-07-25T02:38:35.145Z,3.30
2022-07-25T02:41:03.813Z,3.10
2022-07-25T02:43:31.865Z,3.30
2022-07-25T02:46:00.266Z,3.10
2022-07-25T02:48:28.514Z,2.90
2022-07-25T02:50:56.678Z,2.80
2022-07-25T02:53:47.237Z,2.70
2022-07-25T02:56:13.574Z,3.00
2022-07-25T02:58:42.898Z,2.60
2022-07-25T03:01:10.914Z,3.00
2022-07-25T03:03:39.200Z,3.00
2022-07-25T03:06:07.289Z,3.10
2022-07-25T03:08:35.274Z,3.10
2022-07-25T03:11:03.323Z,2.90
2022-07-25T03:13:33.402Z,3.10
2022-07-25T03:16:01.501Z,2.90
2022-07-25T03:18:29.794Z,3.10
2022-07-25T03:20:57.827Z,3.10
2022-07-25T03:23:27.453Z,3.00
2022-07-25T03:25:56.188Z,3.10
2022-07-25T03:28:24.961Z,2.90
2022-07-25T03:30:53.509Z,3.10
2022-07-25T03:33:21.547Z,3.30
2022-07-25T03:35:49.558Z,3.20
2022-07-25T03:38:17.503Z,2.90
2022-07-25T03:40:45.464Z,2.80
2022-07-25T03:43:13.520Z,3.40
2022-07-25T03:45:41.441Z,3.30
2022-07-25T03:48:09.435Z,3.00
2022-07-25T03:50:37.532Z,3.20
2022-07-25T03:53:05.451Z,3.30
2022-07-25T03:55:33.508Z,2.80
2022-07-25T03:58:01.524Z,3.50
2022-07-25T04:00:29.593Z,3.20
2022-07-25T04:02:58.135Z,20.40
2022-07-25T04:05:26.161Z,10.30
2022-07-25T04:07:54.091Z,4.30
2022-07-25T04:10:22.048Z,3.40
2022-07-25T04:13:07.257Z,3.60
2022-07-25T04:15:35.272Z,3.60
2022-07-25T04:18:03.237Z,3.80
2022-07-25T04:20:34.320Z,5.10
2022-07-25T04:23:02.652Z,5.00
2022-07-25T04:25:31.221Z,5.20
2022-07-25T04:27:59.121Z,5.60
2022-07-25T04:30:27.115Z,5.70
2022-07-25T04:32:55.085Z,7.20
2022-07-25T04:35:23.140Z,7.40
2022-07-25T04:37:51.108Z,5.90
2022-07-25T04:40:19.093Z,12.30
2022-07-25T04:42:47.070Z,7.00
2022-07-25T04:45:17.824Z,6.50
2022-07-25T04:47:46.235Z,6.60
2022-07-25T04:50:14.289Z,6.30
2022-07-25T04:52:43.130Z,6.60
2022-07-25T04:55:11.968Z,5.80
2022-07-25T04:57:39.982Z,6.90
2022-07-25T05:00:10.597Z,6.80
2022-07-25T05:02:38.770Z,6.80
2022-07-25T05:05:08.648Z,5.20
2022-07-25T05:07:50.689Z,5.70
2022-07-25T05:10:21.959Z,5.50
2022-07-25T05:12:50.111Z,6.00
2022-07-25T05:15:18.222Z,6.20
2022-07-25T05:17:46.257Z,7.00
2022-07-25T05:20:14.919Z,6.30
2022-07-25T05:22:43.381Z,6.20
2022-07-25T05:25:12.305Z,6.60
2022-07-25T05:27:40.817Z,5.20
2022-07-25T05:30:10.515Z,4.50
2022-07-25T05:32:39.987Z,4.50
2022-07-25T05:35:09.772Z,5.50
2022-07-25T05:37:38.582Z,4.90
2022-07-25T05:40:08.153Z,5.20
2022-07-25T05:42:36.378Z,5.00
2022-07-25T05:45:05.323Z,5.20
2022-07-25T05:47:33.368Z,4.60
2022-07-25T05:50:02.734Z,4.40
2022-07-25T05:52:30.783Z,3.80
2022-07-25T05:54:58.825Z,3.90
2022-07-25T05:57:26.746Z,4.00
2022-07-25T05:59:54.684Z,3.60
2022-07-25T06:02:22.871Z,4.50
2022-07-25T06:04:50.895Z,4.10
2022-07-25T06:07:19.311Z,3.30
2022-07-25T06:09:47.763Z,4.90
2022-07-25T06:12:17.307Z,4.80
2022-07-25T06:14:45.494Z,4.40
2022-07-25T06:17:13.757Z,3.90
2022-07-25T06:19:41.741Z,4.10
2022-07-25T06:22:11.462Z,4.40
2022-07-25T06:24:39.448Z,3.90
2022-07-25T06:27:08.811Z,4.10
2022-07-25T06:29:38.103Z,4.20
2022-07-25T06:32:06.452Z,3.60
2022-07-25T06:34:34.452Z,4.10
2022-07-25T06:37:02.623Z,4.40
2022-07-25T06:39:30.771Z,4.20
2022-07-25T06:42:00.317Z,4.10
2022-07-25T06:44:34.183Z,3.80
2022-07-25T06:47:03.483Z,3.70
2022-07-25T06:49:32.011Z,4.00
2022-07-25T06:52:00.019Z,4.10
2022-07-25T06:54:27.964Z,3.60
2022-07-25T06:56:55.953Z,4.40
2022-07-25T06:59:24.297Z,3.40
2022-07-25T07:01:52.618Z,3.80
2022-07-25T07:04:20.692Z,3.70
2022-07-25T07:06:48.754Z,3.20
2022-07-25T07:09:16.700Z,4.10
2022-07-25T07:11:44.620Z,3.60
2022-07-25T07:14:12.606Z,3.60
2022-07-25T07:16:41.744Z,3.10
2022-07-25T07:19:14.877Z,3.30
2022-07-25T07:21:43.066Z,3.40
2022-07-25T07:24:24.004Z,3.20
2022-07-25T07:26:54.439Z,3.30
2022-07-25T07:29:22.629Z,3.40
2022-07-25T07:31:50.749Z,2.90
2022-07-25T07:34:18.987Z,3.00
2022-07-25T07:36:47.554Z,3.00
2022-07-25T07:39:16.736Z,2.80
2022-07-25T07:41:44.867Z,2.50
2022-07-25T07:44:13.169Z,2.60
2022-07-25T07:46:41.393Z,2.90
2022-07-25T07:49:09.917Z,2.60
2022-07-25T07:51:38.535Z,2.70
2022-07-25T07:54:25.466Z,3.00
2022-07-25T07:56:53.510Z,3.10
2022-07-25T07:59:22.182Z,2.60
2022-07-25T08:01:50.312Z,3.00
2022-07-25T08:04:18.352Z,3.00
2022-07-25T08:06:47.243Z,2.80
2022-07-25T08:09:15.248Z,3.00
2022-07-25T08:11:43.303Z,2.90
2022-07-25T08:14:11.620Z,3.00
2022-07-25T08:16:39.682Z,2.90
2022-07-25T08:19:07.757Z,3.00
2022-07-25T08:21:35.754Z,2.30
2022-07-25T08:24:04.423Z,2.40
2022-07-25T08:26:37.300Z,2.70
2022-07-25T08:29:18.656Z,2.80
2022-07-25T08:31:47.940Z,2.70
2022-07-25T08:34:16.060Z,3.10
2022-07-25T08:36:44.439Z,3.00
2022-07-25T08:39:13.991Z,3.40
2022-07-25T08:41:43.269Z,2.90
2022-07-25T08:44:14.918Z,2.60
2022-07-25T08:46:44.333Z,2.70
2022-07-25T08:49:12.662Z,2.30
2022-07-25T08:51:41.109Z,2.30
2022-07-25T08:54:09.855Z,2.60
2022-07-25T08:56:38.411Z,2.50
2022-07-25T08:59:06.805Z,2.70
2022-07-25T09:01:35.220Z,2.50
2022-07-25T09:04:04.681Z,2.40
2022-07-25T09:06:33.064Z,2.60
2022-07-25T09:09:05.129Z,2.40
2022-07-25T09:11:36.257Z,2.80
2022-07-25T09:14:14.897Z,2.30
2022-07-25T09:16:45.323Z,1.80
2022-07-25T09:19:16.912Z,2.40
2022-07-25T09:21:57.454Z,2.20
2022-07-25T09:24:28.169Z,2.50
2022-07-25T09:26:59.929Z,2.00
2022-07-25T09:29:33.665Z,2.50
2022-07-25T09:34:41.949Z,2.00
2022-07-25T09:37:12.720Z,2.30
2022-07-25T09:39:51.710Z,2.50
2022-07-25T09:42:51.294Z,2.30
2022-07-25T09:45:19.311Z,3.40
2022-07-25T09:47:52.279Z,3.80
2022-07-25T09:50:21.940Z,2.40
2022-07-25T09:52:54.547Z,2.00
2022-07-25T09:55:23.723Z,2.80
2022-07-25T09:57:55.048Z,3.00
2022-07-25T10:00:25.872Z,2.50
2022-07-25T10:03:38.699Z,2.30
2022-07-25T10:06:26.281Z,2.10
2022-07-25T10:08:54.914Z,2.10
2022-07-25T10:11:27.901Z,2.30
2022-07-25T10:13:57.362Z,2.40
2022-07-25T10:16:27.118Z,2.30
2022-07-25T10:18:58.301Z,2.20
2022-07-25T10:21:28.519Z,2.00
2022-07-25T10:24:33.516Z,1.90
2022-07-25T10:27:09.744Z,2.00
2022-07-25T10:29:40.991Z,2.20
2022-07-25T10:32:14.060Z,1.90
2022-07-25T10:34:52.951Z,2.30
2022-07-25T10:37:27.973Z,2.50
2022-07-25T10:39:56.815Z,1.90
2022-07-25T10:42:26.801Z,1.90
2022-07-25T10:44:59.120Z,2.00
2022-07-25T10:47:28.371Z,1.90
2022-07-25T10:53:07.882Z,1.90
2022-07-25T10:55:36.992Z,1.70
2022-07-25T10:58:22.316Z,2.20
2022-07-25T11:00:51.499Z,2.00
2022-07-25T11:03:21.118Z,1.70
2022-07-25T11:05:49.720Z,1.90
2022-07-25T11:08:22.405Z,1.90
2022-07-25T11:10:52.802Z,1.80
2022-07-25T11:13:20.978Z,1.80
2022-07-25T11:15:50.033Z,1.90
2022-07-25T11:18:18.774Z,2.00
2022-07-25T11:28:35.600Z,1.50
2022-07-25T11:41:42.608Z,1.40
2022-07-25T11:48:08.655Z,1.20
2022-07-25T11:51:13.600Z,1.20
2022-07-25T11:54:13.621Z,1.40
2022-07-25T11:57:42.287Z,1.60
2022-07-25T12:00:21.220Z,1.70
2022-07-25T12:03:18.693Z,1.70
2022-07-25T12:10:34.991Z,1.30
2022-07-25T12:17:19.518Z,1.50
2022-07-25T12:19:48.393Z,1.50
2022-07-25T12:22:21.351Z,1.60
2022-07-25T12:25:13.164Z,1.60
2022-07-25T12:28:13.389Z,1.70
2022-07-25T12:30:44.046Z,1.60
2022-07-25T12:33:13.129Z,1.60
2022-07-25T12:39:58.621Z,1.50
2022-07-25T12:42:27.335Z,1.20
2022-07-25T12:47:51.549Z,1.60
2022-07-25T12:51:41.700Z,1.50
2022-07-25T12:54:10.198Z,1.30
2022-07-25T12:56:52.632Z,1.20
2022-07-25T13:03:28.534Z,1.30
2022-07-25T13:06:59.643Z,1.20
2022-07-25T13:17:12.718Z,1.30
2022-07-25T13:23:57.063Z,1.50
2022-07-25T13:26:25.391Z,1.30
2022-07-25T13:28:59.367Z,1.40
2022-07-25T13:32:37.205Z,1.30
2022-07-25T13:35:06.703Z,0.90
2022-07-25T13:38:13.637Z,1.40
2022-07-25T13:41:23.597Z,1.30
2022-07-25T13:47:39.666Z,1.60
2022-07-25T13:50:08.404Z,1.40
2022-07-25T13:53:05.601Z,1.30
2022-07-25T13:55:36.013Z,1.60
2022-07-25T13:58:20.809Z,1.40
2022-07-25T14:01:12.669Z,1.40
2022-07-25T14:04:35.999Z,1.60
2022-07-25T14:07:04.137Z,1.20
2022-07-25T14:09:32.381Z,1.30
2022-07-25T14:12:00.476Z,1.10
2022-07-25T14:14:28.473Z,1.20
2022-07-25T14:16:56.633Z,1.40
2022-07-25T14:20:19.012Z,1.10
2022-07-25T14:22:47.493Z,1.30
2022-07-25T14:25:15.631Z,1.20
2022-07-25T14:27:45.334Z,1.10
2022-07-25T14:30:13.892Z,1.30
2022-07-25T14:32:41.817Z,1.40
2022-07-25T14:35:11.571Z,1.30
2022-07-25T14:37:39.704Z,1.40
2022-07-25T14:44:52.623Z,1.50
2022-07-25T14:47:23.487Z,1.40
2022-07-25T14:49:55.194Z,1.30
2022-07-25T14:52:23.489Z,1.20
2022-07-25T14:54:51.593Z,1.30
2022-07-25T14:57:19.587Z,1.60
2022-07-25T15:00:41.844Z,1.40
2022-07-25T15:03:10.407Z,1.20
2022-07-25T15:05:39.259Z,1.80
2022-07-25T15:08:07.670Z,1.30
2022-07-25T15:10:36.940Z,1.40
2022-07-25T15:13:30.121Z,1.50
2022-07-25T15:16:13.121Z,1.60
2022-07-25T15:19:05.336Z,1.30
2022-07-25T15:21:29.421Z,1.70
2022-07-25T15:23:57.729Z,1.50
2022-07-25T15:26:26.690Z,1.30
2022-07-25T15:28:54.885Z,1.40
2022-07-25T15:31:24.794Z,1.40
2022-07-25T15:33:55.211Z,1.30
2022-07-25T15:36:28.767Z,1.40
2022-07-25T15:38:57.572Z,1.50
2022-07-25T15:41:26.841Z,1.60
2022-07-25T15:43:54.873Z,1.30
2022-07-25T15:46:23.646Z,1.20
2022-07-25T15:48:51.798Z,1.40
2022-07-25T15:51:19.979Z,1.40
2022-07-25T15:53:48.224Z,1.40
2022-07-25T15:56:17.152Z,1.50
2022-07-25T15:58:47.435Z,1.10
2022-07-25T16:01:16.084Z,1.60
2022-07-25T16:08:35.798Z,1.60
2022-07-25T16:11:04.908Z,1.40
2022-07-25T16:13:33.060Z,1.60
2022-07-25T16:16:01.275Z,1.40
2022-07-25T16:18:29.456Z,1.70
2022-07-25T16:20:58.163Z,1.40
2022-07-25T16:23:28.245Z,1.70
2022-07-25T16:25:56.203Z,1.70
2022-07-25T16:32:19.464Z,1.90
2022-07-25T16:34:47.523Z,1.60
2022-07-25T16:37:15.716Z,1.70
2022-07-25T16:39:43.941Z,1.90
2022-07-25T16:42:12.034Z,2.10
2022-07-25T16:44:41.577Z,1.70
2022-07-25T16:47:09.657Z,1.70
2022-07-25T16:49:37.930Z,1.90
2022-07-25T16:52:06.150Z,1.70
2022-07-25T16:54:34.460Z,1.80
2022-07-25T16:57:02.612Z,1.70
2022-07-25T16:59:30.615Z,1.60
2022-07-25T17:02:08.778Z,1.60
2022-07-25T17:04:39.516Z,1.60
2022-07-25T17:07:07.986Z,1.90
2022-07-25T17:09:35.993Z,1.50
2022-07-25T17:12:04.488Z,1.30
2022-07-25T17:14:39.138Z,1.50
2022-07-25T17:17:35.889Z,1.20
2022-07-25T17:20:04.716Z,1.60
2022-07-25T17:22:32.792Z,2.40
2022-07-25T17:25:01.387Z,1.40
2022-07-25T17:27:29.951Z,1.60
2022-07-25T17:34:07.506Z,1.60
2022-07-25T17:36:35.731Z,1.70
2022-07-25T17:39:04.055Z,1.70
2022-07-25T17:41:32.699Z,1.60
2022-07-25T17:44:01.074Z,1.60
2022-07-25T17:46:29.263Z,1.80
2022-07-25T17:48:59.681Z,1.70
2022-07-25T17:51:33.335Z,1.90
2022-07-25T17:54:11.308Z,1.90
2022-07-25T17:56:42.400Z,2.10
2022-07-25T17:59:10.746Z,2.10
2022-07-25T18:01:40.194Z,3.10
2022-07-25T18:04:11.126Z,2.10
2022-07-25T18:06:39.702Z,2.20
2022-07-25T18:09:08.694Z,2.40
2022-07-25T18:11:36.856Z,2.50
2022-07-25T18:14:05.022Z,2.50
2022-07-25T18:16:33.616Z,4.10
2022-07-25T18:19:01.757Z,2.40
2022-07-25T18:21:30.491Z,2.60
2022-07-25T18:23:58.730Z,3.70
2022-07-25T18:26:28.401Z,3.00
2022-07-25T18:28:56.552Z,2.70
2022-07-25T18:31:35.030Z,2.60
2022-07-25T18:34:04.006Z,3.50
2022-07-25T18:36:32.611Z,4.60
2022-07-25T18:39:00.676Z,3.10
2022-07-25T18:41:30.149Z,3.20
2022-07-25T18:43:58.791Z,2.90
2022-07-25T18:46:30.331Z,3.40
2022-07-25T18:48:59.268Z,2.90
2022-07-25T18:51:27.683Z,2.80
2022-07-25T18:53:55.828Z,2.70
2022-07-25T18:56:26.339Z,2.80
2022-07-25T18:58:54.346Z,2.60
2022-07-25T19:01:22.553Z,2.80
2022-07-25T19:03:50.751Z,2.70
2022-07-25T19:06:18.712Z,2.60
2022-07-25T19:08:48.058Z,2.60
2022-07-25T19:11:16.169Z,2.70
2022-07-25T19:13:49.923Z,2.90
2022-07-25T19:16:19.377Z,5.00
2022-07-25T19:18:47.623Z,3.10
2022-07-25T19:21:15.666Z,3.10
2022-07-25T19:23:49.698Z,3.20
2022-07-25T19:26:19.456Z,3.30
2022-07-25T19:28:48.843Z,2.70
2022-07-25T19:31:17.572Z,3.10
2022-07-25T19:33:46.244Z,2.90
2022-07-25T19:36:14.599Z,3.20
2022-07-25T19:38:42.703Z,3.10
2022-07-25T19:41:10.715Z,3.10
2022-07-25T19:43:38.715Z,2.70
2022-07-25T19:46:06.862Z,3.50
2022-07-25T19:48:34.949Z,3.60
2022-07-25T19:51:03.243Z,4.20
2022-07-25T19:53:58.777Z,3.20
2022-07-25T19:56:26.759Z,2.60
2022-07-25T19:58:54.795Z,3.40
2022-07-25T20:01:28.594Z,3.30
2022-07-25T20:03:56.622Z,2.90
2022-07-25T20:06:24.914Z,3.00
2022-07-25T20:08:53.058Z,3.50
2022-07-25T20:11:21.374Z,3.60
2022-07-25T20:13:49.344Z,3.10
2022-07-25T20:16:17.585Z,3.20
2022-07-25T20:18:45.546Z,2.90
2022-07-25T20:21:13.593Z,2.90
2022-07-25T20:24:07.483Z,3.80
2022-07-25T20:26:35.744Z,3.20
2022-07-25T20:29:04.457Z,3.00
2022-07-25T20:31:32.711Z,3.30
2022-07-25T20:34:00.755Z,3.00
2022-07-25T20:36:28.741Z,3.20
2022-07-25T20:38:56.981Z,3.40
2022-07-25T20:41:26.909Z,3.30
2022-07-25T20:43:56.994Z,3.50
2022-07-25T20:46:24.985Z,3.10
2022-07-25T20:48:53.146Z,3.70
2022-07-25T20:51:21.166Z,3.40
2022-07-25T20:53:51.646Z,3.40
2022-07-25T20:56:21.668Z,3.80
2022-07-25T20:58:49.634Z,3.90
2022-07-25T21:01:17.826Z,3.80
2022-07-25T21:03:45.806Z,3.90
2022-07-25T21:06:13.860Z,3.80
2022-07-25T21:08:41.781Z,3.20
2022-07-25T21:11:09.711Z,3.90
2022-07-25T21:13:37.740Z,3.20
2022-07-25T21:16:05.980Z,3.90
2022-07-25T21:18:34.007Z,3.60
2022-07-25T21:21:01.894Z,3.50
2022-07-25T21:23:29.923Z,3.60
2022-07-25T21:25:57.968Z,4.30
2022-07-25T21:28:26.169Z,3.30
2022-07-25T21:30:54.237Z,3.90
2022-07-25T21:33:22.198Z,3.50
2022-07-25T21:35:53.458Z,3.90
2022-07-25T21:38:26.023Z,3.60
2022-07-25T21:40:57.284Z,3.80
2022-07-25T21:43:25.190Z,3.60
2022-07-25T21:45:54.517Z,3.40
2022-07-25T21:48:43.426Z,4.00
2022-07-25T21:51:19.260Z,3.50
2022-07-25T21:53:52.777Z,3.70
2022-07-25T21:56:21.155Z,3.20
2022-07-25T21:58:49.332Z,3.60
2022-07-25T22:01:19.619Z,3.40
2022-07-25T22:03:47.747Z,3.50
2022-07-25T22:06:15.803Z,3.80
2022-07-25T22:08:43.687Z,3.30
2022-07-25T22:11:20.755Z,3.60
2022-07-25T22:13:59.722Z,3.80
2022-07-25T22:16:27.865Z,3.80
2022-07-25T22:18:57.326Z,3.30
2022-07-25T22:21:25.494Z,4.00
2022-07-25T22:23:53.542Z,3.50
2022-07-25T22:26:21.703Z,4.10
2022-07-25T22:28:50.763Z,3.40
2022-07-25T22:31:18.996Z,3.30
2022-07-25T22:33:47.048Z,3.60
2022-07-25T22:36:15.123Z,3.70
2022-07-25T22:38:43.999Z,3.80
2022-07-25T22:41:12.317Z,3.90
2022-07-25T22:43:57.224Z,3.30
2022-07-25T22:46:29.372Z,3.50
2022-07-25T22:48:58.469Z,4.10
2022-07-25T22:51:27.681Z,4.40
2022-07-25T22:53:59.711Z,4.90
2022-07-25T22:56:28.583Z,4.60
2022-07-25T22:59:02.198Z,3.80
2022-07-25T23:01:30.153Z,4.20
2022-07-25T23:03:58.206Z,3.60
2022-07-25T23:07:43.587Z,3.70
2022-07-25T23:10:12.287Z,3.40
2022-07-25T23:12:40.233Z,3.60
2022-07-25T23:15:08.732Z,3.80
2022-07-25T23:17:36.640Z,3.90
2022-07-25T23:20:05.581Z,3.50
2022-07-25T23:22:37.151Z,3.70
2022-07-25T23:25:05.649Z,3.70
2022-07-25T23:27:35.003Z,3.20
2022-07-25T23:30:06.252Z,3.60
2022-07-25T23:32:34.503Z,3.60
2022-07-25T23:35:02.488Z,4.40
2022-07-25T23:37:30.420Z,3.70
2022-07-25T23:39:58.341Z,4.10
2022-07-25T23:42:26.412Z,3.80
2022-07-25T23:44:54.457Z,3.90
2022-07-25T23:47:26.827Z,3.90
2022-07-25T23:50:08.269Z,3.70
2022-07-25T23:52:36.151Z,3.90
2022-07-25T23:55:05.570Z,3.80
2022-07-25T23:57:33.882Z,4.10
